sensor_id;sensor_type;location;lat;lon;timestamp;temperature;humidity
14192;DHT22;7177;48.572;7.838;2023-02-26T00:02:08;0.50;99.90
14192;DHT22;7177;48.572;7.838;2023-02-26T00:04:35;0.40;99.90
14192;DHT22;7177;48.572;7.838;2023-02-26T00:07:00;0.40;99.90
14192;DHT22;7177;48.572;7.838;2023-02-26T00:09:26;0.30;99.90
14192;DHT22;7177;48.572;7.838;2023-02-26T00:11:52;0.30;99.90
14192;DHT22;7177;48.572;7.838;2023-02-26T00:14:18;0.30;99.90
14192;DHT22;7177;48.572;7.838;2023-02-26T00:16:48;0.30;99.90
14192;DHT22;7177;48.572;7.838;2023-02-26T00:19:15;0.20;99.90
14192;DHT22;7177;48.572;7.838;2023-02-26T00:21:41;0.20;99.90
14192;DHT22;7177;48.572;7.838;2023-02-26T00:24:06;0.10;99.90
14192;DHT22;7177;48.572;7.838;2023-02-26T00:26:33;0.00;99.90
14192;DHT22;7177;48.572;7.838;2023-02-26T00:28:59;0.00;99.90
14192;DHT22;7177;48.572;7.838;2023-02-26T00:31:25;0.00;99.90
14192;DHT22;7177;48.572;7.838;2023-02-26T00:33:55;0.00;99.90
14192;DHT22;7177;48.572;7.838;2023-02-26T00:42:13;0.00;99.90
14192;DHT22;7177;48.572;7.838;2023-02-26T00:44:39;0.10;99.90
14192;DHT22;7177;48.572;7.838;2023-02-26T00:50:20;0.10;99.90
14192;DHT22;7177;48.572;7.838;2023-02-26T00:55:33;0.10;99.90
14192;DHT22;7177;48.572;7.838;2023-02-26T00:57:59;0.10;99.90
14192;DHT22;7177;48.572;7.838;2023-02-26T01:00:24;0.10;99.90
14192;DHT22;7177;48.572;7.838;2023-02-26T01:02:50;0.10;99.90
14192;DHT22;7177;48.572;7.838;2023-02-26T01:05:16;0.10;99.90
14192;DHT22;7177;48.572;7.838;2023-02-26T01:10:27;0.00;99.90
14192;DHT22;7177;48.572;7.838;2023-02-26T01:12:53;0.00;99.90
14192;DHT22;7177;48.572;7.838;2023-02-26T01:15:22;0.00;99.90
14192;DHT22;7177;48.572;7.838;2023-02-26T01:20:51;-0.10;99.90
14192;DHT22;7177;48.572;7.838;2023-02-26T01:23:23;-0.10;99.90
14192;DHT22;7177;48.572;7.838;2023-02-26T01:25:54;-0.20;99.90
14192;DHT22;7177;48.572;7.838;2023-02-26T01:28:22;0.00;99.90
14192;DHT22;7177;48.572;7.838;2023-02-26T01:30:49;-0.10;99.90
14192;DHT22;7177;48.572;7.838;2023-02-26T01:33:27;-0.20;99.90
14192;DHT22;7177;48.572;7.838;2023-02-26T01:36:11;-0.20;99.90
14192;DHT22;7177;48.572;7.838;2023-02-26T01:41:38;-0.20;99.90
14192;DHT22;7177;48.572;7.838;2023-02-26T01:46:40;-0.20;99.90
14192;DHT22;7177;48.572;7.838;2023-02-26T01:49:14;-0.30;99.90
14192;DHT22;7177;48.572;7.838;2023-02-26T01:51:45;-0.30;99.90
14192;DHT22;7177;48.572;7.838;2023-02-26T01:54:12;-0.30;99.90
14192;DHT22;7177;48.572;7.838;2023-02-26T01:56:38;-0.30;99.90
14192;DHT22;7177;48.572;7.838;2023-02-26T01:59:05;-0.30;99.90
14192;DHT22;7177;48.572;7.838;2023-02-26T02:01:32;-0.30;99.90
14192;DHT22;7177;48.572;7.838;2023-02-26T02:04:00;-0.40;99.90
14192;DHT22;7177;48.572;7.838;2023-02-26T02:06:27;-0.40;99.90
14192;DHT22;7177;48.572;7.838;2023-02-26T02:08:54;-0.40;99.90
14192;DHT22;7177;48.572;7.838;2023-02-26T02:11:20;-0.40;99.90
14192;DHT22;7177;48.572;7.838;2023-02-26T02:14:08;-0.40;99.90
14192;DHT22;7177;48.572;7.838;2023-02-26T02:16:46;-0.50;99.90
14192;DHT22;7177;48.572;7.838;2023-02-26T02:19:34;-0.60;99.90
14192;DHT22;7177;48.572;7.838;2023-02-26T02:22:22;-0.70;99.90
14192;DHT22;7177;48.572;7.838;2023-02-26T02:28:22;-0.90;99.90
14192;DHT22;7177;48.572;7.838;2023-02-26T02:36:25;-0.90;99.90
14192;DHT22;7177;48.572;7.838;2023-02-26T02:38:55;-0.90;99.90
14192;DHT22;7177;48.572;7.838;2023-02-26T02:41:36;-0.90;99.90
14192;DHT22;7177;48.572;7.838;2023-02-26T02:44:07;-0.70;99.90
14192;DHT22;7177;48.572;7.838;2023-02-26T02:46:37;-0.70;99.90
14192;DHT22;7177;48.572;7.838;2023-02-26T02:49:17;-0.80;99.90
14192;DHT22;7177;48.572;7.838;2023-02-26T02:51:51;-0.80;99.90
14192;DHT22;7177;48.572;7.838;2023-02-26T02:54:42;-0.70;99.90
14192;DHT22;7177;48.572;7.838;2023-02-26T02:57:29;-0.70;99.90
14192;DHT22;7177;48.572;7.838;2023-02-26T03:00:03;-0.70;99.90
14192;DHT22;7177;48.572;7.838;2023-02-26T03:03:01;-0.60;99.90
14192;DHT22;7177;48.572;7.838;2023-02-26T03:05:28;-0.70;99.90
14192;DHT22;7177;48.572;7.838;2023-02-26T03:07:58;-0.70;99.90
14192;DHT22;7177;48.572;7.838;2023-02-26T03:10:25;-0.70;99.90
14192;DHT22;7177;48.572;7.838;2023-02-26T03:12:51;-0.70;99.90
14192;DHT22;7177;48.572;7.838;2023-02-26T03:15:25;-0.70;99.90
14192;DHT22;7177;48.572;7.838;2023-02-26T03:18:03;-0.80;99.90
14192;DHT22;7177;48.572;7.838;2023-02-26T03:20:37;-0.80;99.90
14192;DHT22;7177;48.572;7.838;2023-02-26T03:25:47;-0.80;99.90
14192;DHT22;7177;48.572;7.838;2023-02-26T03:28:30;-0.80;99.90
14192;DHT22;7177;48.572;7.838;2023-02-26T03:31:04;-0.80;99.90
14192;DHT22;7177;48.572;7.838;2023-02-26T03:33:40;-0.80;99.90
14192;DHT22;7177;48.572;7.838;2023-02-26T03:36:37;-0.70;99.90
14192;DHT22;7177;48.572;7.838;2023-02-26T03:39:08;-0.70;99.90
14192;DHT22;7177;48.572;7.838;2023-02-26T03:41:42;-0.70;99.90
14192;DHT22;7177;48.572;7.838;2023-02-26T03:44:13;-0.70;99.90
14192;DHT22;7177;48.572;7.838;2023-02-26T03:46:53;-0.70;99.90
14192;DHT22;7177;48.572;7.838;2023-02-26T03:49:30;-0.70;99.90
14192;DHT22;7177;48.572;7.838;2023-02-26T03:51:59;-0.70;99.90
14192;DHT22;7177;48.572;7.838;2023-02-26T03:54:30;-0.70;99.90
14192;DHT22;7177;48.572;7.838;2023-02-26T03:56:57;-0.70;99.90
14192;DHT22;7177;48.572;7.838;2023-02-26T03:59:22;-0.80;99.90
14192;DHT22;7177;48.572;7.838;2023-02-26T04:02:01;-0.80;99.90
14192;DHT22;7177;48.572;7.838;2023-02-26T04:04:38;-0.90;99.90
14192;DHT22;7177;48.572;7.838;2023-02-26T04:07:07;-0.90;99.90
14192;DHT22;7177;48.572;7.838;2023-02-26T04:11:59;-1.70;99.90
14192;DHT22;7177;48.572;7.838;2023-02-26T04:14:25;-0.90;99.90
14192;DHT22;7177;48.572;7.838;2023-02-26T04:19:16;-1.00;99.90
14192;DHT22;7177;48.572;7.838;2023-02-26T04:21:42;-1.00;99.90
14192;DHT22;7177;48.572;7.838;2023-02-26T04:24:07;-1.00;99.90
14192;DHT22;7177;48.572;7.838;2023-02-26T04:26:33;-1.00;99.90
14192;DHT22;7177;48.572;7.838;2023-02-26T04:28:58;-1.00;99.90
14192;DHT22;7177;48.572;7.838;2023-02-26T04:31:24;-1.00;99.90
14192;DHT22;7177;48.572;7.838;2023-02-26T04:33:49;-1.00;99.90
14192;DHT22;7177;48.572;7.838;2023-02-26T04:36:15;-1.10;99.90
14192;DHT22;7177;48.572;7.838;2023-02-26T04:38:41;-1.10;99.90
14192;DHT22;7177;48.572;7.838;2023-02-26T04:41:06;-1.30;99.90
14192;DHT22;7177;48.572;7.838;2023-02-26T04:43:32;-1.50;99.90
14192;DHT22;7177;48.572;7.838;2023-02-26T04:45:58;-1.50;99.90
14192;DHT22;7177;48.572;7.838;2023-02-26T04:48:23;-1.50;99.90
14192;DHT22;7177;48.572;7.838;2023-02-26T04:50:49;-1.60;99.90
14192;DHT22;7177;48.572;7.838;2023-02-26T04:53:14;-1.60;99.90
14192;DHT22;7177;48.572;7.838;2023-02-26T04:55:40;-1.60;99.90
14192;DHT22;7177;48.572;7.838;2023-02-26T04:58:06;-1.60;99.90
14192;DHT22;7177;48.572;7.838;2023-02-26T05:00:32;-1.60;99.90
14192;DHT22;7177;48.572;7.838;2023-02-26T05:02:58;-1.60;99.90
14192;DHT22;7177;48.572;7.838;2023-02-26T05:05:23;-1.50;99.90
14192;DHT22;7177;48.572;7.838;2023-02-26T05:07:49;-1.50;99.90
14192;DHT22;7177;48.572;7.838;2023-02-26T05:10:18;-1.50;99.90
14192;DHT22;7177;48.572;7.838;2023-02-26T05:12:43;-1.50;99.90
14192;DHT22;7177;48.572;7.838;2023-02-26T05:15:09;-1.40;99.90
14192;DHT22;7177;48.572;7.838;2023-02-26T05:17:35;-1.40;99.90
14192;DHT22;7177;48.572;7.838;2023-02-26T05:20:01;-1.40;99.90
14192;DHT22;7177;48.572;7.838;2023-02-26T05:22:26;-1.40;99.90
14192;DHT22;7177;48.572;7.838;2023-02-26T05:24:51;-1.40;99.90
14192;DHT22;7177;48.572;7.838;2023-02-26T05:27:18;-1.40;99.90
14192;DHT22;7177;48.572;7.838;2023-02-26T05:29:43;-1.50;99.90
14192;DHT22;7177;48.572;7.838;2023-02-26T05:32:10;-1.50;99.90
14192;DHT22;7177;48.572;7.838;2023-02-26T05:34:36;-1.50;99.90
14192;DHT22;7177;48.572;7.838;2023-02-26T05:37:02;-1.50;99.90
14192;DHT22;7177;48.572;7.838;2023-02-26T05:39:27;-1.60;99.90
14192;DHT22;7177;48.572;7.838;2023-02-26T05:41:53;-1.60;99.90
14192;DHT22;7177;48.572;7.838;2023-02-26T05:44:20;-1.60;99.90
14192;DHT22;7177;48.572;7.838;2023-02-26T05:46:45;-1.60;99.90
14192;DHT22;7177;48.572;7.838;2023-02-26T05:49:11;-1.50;99.90
14192;DHT22;7177;48.572;7.838;2023-02-26T05:51:36;-1.50;99.90
14192;DHT22;7177;48.572;7.838;2023-02-26T05:54:04;-1.50;99.90
14192;DHT22;7177;48.572;7.838;2023-02-26T05:56:29;-1.50;99.90
14192;DHT22;7177;48.572;7.838;2023-02-26T05:58:55;-1.50;99.90
14192;DHT22;7177;48.572;7.838;2023-02-26T06:01:20;-1.40;99.90
14192;DHT22;7177;48.572;7.838;2023-02-26T06:03:46;-1.40;99.90
14192;DHT22;7177;48.572;7.838;2023-02-26T06:06:12;-1.40;99.90
14192;DHT22;7177;48.572;7.838;2023-02-26T06:08:40;-1.40;99.90
14192;DHT22;7177;48.572;7.838;2023-02-26T06:11:05;-1.40;99.90
14192;DHT22;7177;48.572;7.838;2023-02-26T06:13:31;-1.40;99.90
14192;DHT22;7177;48.572;7.838;2023-02-26T06:15:57;-1.40;99.90
14192;DHT22;7177;48.572;7.838;2023-02-26T06:18:22;-1.50;99.90
14192;DHT22;7177;48.572;7.838;2023-02-26T06:20:48;-1.50;99.90
14192;DHT22;7177;48.572;7.838;2023-02-26T06:23:13;-1.40;99.90
14192;DHT22;7177;48.572;7.838;2023-02-26T06:25:42;-1.50;99.90
14192;DHT22;7177;48.572;7.838;2023-02-26T06:28:08;-1.50;99.90
14192;DHT22;7177;48.572;7.838;2023-02-26T06:30:34;-1.50;99.90
14192;DHT22;7177;48.572;7.838;2023-02-26T06:32:59;-1.50;99.90
14192;DHT22;7177;48.572;7.838;2023-02-26T06:35:25;-1.40;99.90
14192;DHT22;7177;48.572;7.838;2023-02-26T06:37:52;-1.50;99.90
14192;DHT22;7177;48.572;7.838;2023-02-26T06:40:18;-1.00;99.90
14192;DHT22;7177;48.572;7.838;2023-02-26T06:42:43;-0.80;99.90
14192;DHT22;7177;48.572;7.838;2023-02-26T06:45:09;-0.70;99.90
14192;DHT22;7177;48.572;7.838;2023-02-26T06:50:01;-0.70;99.90
14192;DHT22;7177;48.572;7.838;2023-02-26T06:52:28;-0.70;99.90
14192;DHT22;7177;48.572;7.838;2023-02-26T06:54:54;-0.80;99.90
14192;DHT22;7177;48.572;7.838;2023-02-26T06:57:19;-0.80;99.90
14192;DHT22;7177;48.572;7.838;2023-02-26T06:59:45;-0.80;99.90
14192;DHT22;7177;48.572;7.838;2023-02-26T07:02:18;-0.80;99.90
14192;DHT22;7177;48.572;7.838;2023-02-26T07:04:44;-0.70;99.90
14192;DHT22;7177;48.572;7.838;2023-02-26T07:07:10;-0.60;99.90
14192;DHT22;7177;48.572;7.838;2023-02-26T07:09:36;-0.50;99.90
14192;DHT22;7177;48.572;7.838;2023-02-26T07:12:02;-0.40;99.90
14192;DHT22;7177;48.572;7.838;2023-02-26T07:14:27;-0.30;99.90
14192;DHT22;7177;48.572;7.838;2023-02-26T07:16:53;-0.20;99.90
14192;DHT22;7177;48.572;7.838;2023-02-26T07:19:18;-0.10;99.90
14192;DHT22;7177;48.572;7.838;2023-02-26T07:21:44;0.20;99.90
14192;DHT22;7177;48.572;7.838;2023-02-26T07:24:09;0.40;99.90
14192;DHT22;7177;48.572;7.838;2023-02-26T07:26:35;0.80;99.90
14192;DHT22;7177;48.572;7.838;2023-02-26T07:29:00;0.80;99.90
14192;DHT22;7177;48.572;7.838;2023-02-26T07:31:26;1.00;99.90
14192;DHT22;7177;48.572;7.838;2023-02-26T07:33:52;1.10;99.90
14192;DHT22;7177;48.572;7.838;2023-02-26T07:36:17;1.30;99.90
14192;DHT22;7177;48.572;7.838;2023-02-26T07:38:43;1.70;99.90
14192;DHT22;7177;48.572;7.838;2023-02-26T07:41:09;1.60;99.90
14192;DHT22;7177;48.572;7.838;2023-02-26T07:43:34;1.70;99.90
14192;DHT22;7177;48.572;7.838;2023-02-26T07:46:00;1.80;99.90
14192;DHT22;7177;48.572;7.838;2023-02-26T07:48:25;1.90;99.90
14192;DHT22;7177;48.572;7.838;2023-02-26T07:50:52;2.00;99.90
14192;DHT22;7177;48.572;7.838;2023-02-26T07:53:18;2.10;99.90
14192;DHT22;7177;48.572;7.838;2023-02-26T07:55:43;1.90;99.90
14192;DHT22;7177;48.572;7.838;2023-02-26T07:58:09;1.90;99.90
14192;DHT22;7177;48.572;7.838;2023-02-26T08:00:35;2.10;99.90
14192;DHT22;7177;48.572;7.838;2023-02-26T08:03:00;2.00;99.90
14192;DHT22;7177;48.572;7.838;2023-02-26T08:05:26;2.10;99.90
14192;DHT22;7177;48.572;7.838;2023-02-26T08:07:51;2.10;99.90
14192;DHT22;7177;48.572;7.838;2023-02-26T08:10:17;2.10;99.90
14192;DHT22;7177;48.572;7.838;2023-02-26T08:12:43;2.30;99.90
14192;DHT22;7177;48.572;7.838;2023-02-26T08:15:09;2.40;99.90
14192;DHT22;7177;48.572;7.838;2023-02-26T08:17:37;2.60;99.90
14192;DHT22;7177;48.572;7.838;2023-02-26T08:20:03;2.70;99.90
14192;DHT22;7177;48.572;7.838;2023-02-26T08:22:29;2.80;99.90
14192;DHT22;7177;48.572;7.838;2023-02-26T08:24:55;2.90;99.90
14192;DHT22;7177;48.572;7.838;2023-02-26T08:27:20;3.10;99.90
14192;DHT22;7177;48.572;7.838;2023-02-26T08:29:46;3.00;99.90
14192;DHT22;7177;48.572;7.838;2023-02-26T08:32:15;3.10;99.90
14192;DHT22;7177;48.572;7.838;2023-02-26T08:34:42;2.90;99.90
14192;DHT22;7177;48.572;7.838;2023-02-26T08:37:07;3.20;99.90
14192;DHT22;7177;48.572;7.838;2023-02-26T08:39:36;3.10;99.90
14192;DHT22;7177;48.572;7.838;2023-02-26T08:42:03;3.30;99.90
14192;DHT22;7177;48.572;7.838;2023-02-26T08:44:29;3.30;99.90
14192;DHT22;7177;48.572;7.838;2023-02-26T08:46:55;3.10;99.90
14192;DHT22;7177;48.572;7.838;2023-02-26T08:49:20;3.20;99.90
14192;DHT22;7177;48.572;7.838;2023-02-26T08:51:46;3.40;99.90
14192;DHT22;7177;48.572;7.838;2023-02-26T08:54:12;3.60;99.90
14192;DHT22;7177;48.572;7.838;2023-02-26T08:56:37;3.60;99.90
14192;DHT22;7177;48.572;7.838;2023-02-26T08:59:03;3.40;99.90
14192;DHT22;7177;48.572;7.838;2023-02-26T09:01:29;3.40;99.90
14192;DHT22;7177;48.572;7.838;2023-02-26T09:03:55;3.20;99.90
14192;DHT22;7177;48.572;7.838;2023-02-26T09:06:20;3.00;99.90
14192;DHT22;7177;48.572;7.838;2023-02-26T09:08:46;3.40;99.90
14192;DHT22;7177;48.572;7.838;2023-02-26T09:11:12;3.70;99.90
14192;DHT22;7177;48.572;7.838;2023-02-26T09:13:37;4.00;99.90
14192;DHT22;7177;48.572;7.838;2023-02-26T09:16:03;4.30;99.90
14192;DHT22;7177;48.572;7.838;2023-02-26T09:18:29;4.40;99.90
14192;DHT22;7177;48.572;7.838;2023-02-26T09:20:54;4.40;99.90
14192;DHT22;7177;48.572;7.838;2023-02-26T09:23:20;4.40;99.90
14192;DHT22;7177;48.572;7.838;2023-02-26T09:25:45;4.30;99.90
14192;DHT22;7177;48.572;7.838;2023-02-26T09:28:16;4.40;99.90
14192;DHT22;7177;48.572;7.838;2023-02-26T09:30:41;4.50;99.90
14192;DHT22;7177;48.572;7.838;2023-02-26T09:33:07;4.50;99.90
14192;DHT22;7177;48.572;7.838;2023-02-26T09:35:33;4.40;99.90
14192;DHT22;7177;48.572;7.838;2023-02-26T09:37:59;4.60;99.90
14192;DHT22;7177;48.572;7.838;2023-02-26T09:40:52;4.60;99.90
14192;DHT22;7177;48.572;7.838;2023-02-26T09:46:45;5.60;99.90
14192;DHT22;7177;48.572;7.838;2023-02-26T09:51:52;5.40;99.90
14192;DHT22;7177;48.572;7.838;2023-02-26T09:54:22;5.40;99.90
14192;DHT22;7177;48.572;7.838;2023-02-26T09:56:50;5.30;99.90
14192;DHT22;7177;48.572;7.838;2023-02-26T09:59:17;5.20;99.90
14192;DHT22;7177;48.572;7.838;2023-02-26T10:04:36;5.20;99.90
14192;DHT22;7177;48.572;7.838;2023-02-26T10:07:16;5.10;99.90
14192;DHT22;7177;48.572;7.838;2023-02-26T10:10:13;4.80;99.90
14192;DHT22;7177;48.572;7.838;2023-02-26T10:12:41;4.70;99.90
14192;DHT22;7177;48.572;7.838;2023-02-26T10:15:15;4.80;99.90
14192;DHT22;7177;48.572;7.838;2023-02-26T10:20:38;4.70;99.90
14192;DHT22;7177;48.572;7.838;2023-02-26T10:23:37;5.00;99.90
14192;DHT22;7177;48.572;7.838;2023-02-26T10:26:10;4.80;99.90
14192;DHT22;7177;48.572;7.838;2023-02-26T10:28:43;4.10;99.90
14192;DHT22;7177;48.572;7.838;2023-02-26T10:34:14;3.80;99.90
14192;DHT22;7177;48.572;7.838;2023-02-26T10:37:35;3.40;99.90
14192;DHT22;7177;48.572;7.838;2023-02-26T10:42:51;3.30;99.90
14192;DHT22;7177;48.572;7.838;2023-02-26T10:48:23;3.40;99.90
14192;DHT22;7177;48.572;7.838;2023-02-26T10:50:55;2.90;99.90
14192;DHT22;7177;48.572;7.838;2023-02-26T10:53:22;2.70;99.90
14192;DHT22;7177;48.572;7.838;2023-02-26T10:56:09;2.80;99.90
14192;DHT22;7177;48.572;7.838;2023-02-26T10:58:36;2.90;99.90
14192;DHT22;7177;48.572;7.838;2023-02-26T11:01:03;3.00;99.90
14192;DHT22;7177;48.572;7.838;2023-02-26T11:03:49;3.10;99.90
14192;DHT22;7177;48.572;7.838;2023-02-26T11:06:23;3.00;99.90
14192;DHT22;7177;48.572;7.838;2023-02-26T11:08:52;2.90;99.90
14192;DHT22;7177;48.572;7.838;2023-02-26T11:14:05;2.50;99.90
14192;DHT22;7177;48.572;7.838;2023-02-26T11:16:33;2.30;99.90
14192;DHT22;7177;48.572;7.838;2023-02-26T11:19:00;2.20;99.90
14192;DHT22;7177;48.572;7.838;2023-02-26T11:21:33;2.30;99.90
14192;DHT22;7177;48.572;7.838;2023-02-26T11:24:07;2.30;99.90
14192;DHT22;7177;48.572;7.838;2023-02-26T11:26:35;2.20;99.90
14192;DHT22;7177;48.572;7.838;2023-02-26T11:29:01;2.30;99.90
14192;DHT22;7177;48.572;7.838;2023-02-26T11:31:28;2.10;99.90
14192;DHT22;7177;48.572;7.838;2023-02-26T11:34:01;2.10;99.90
14192;DHT22;7177;48.572;7.838;2023-02-26T11:36:29;2.10;99.90
14192;DHT22;7177;48.572;7.838;2023-02-26T11:41:36;2.10;99.90
14192;DHT22;7177;48.572;7.838;2023-02-26T11:44:11;2.20;99.90
14192;DHT22;7177;48.572;7.838;2023-02-26T11:46:44;2.30;99.90
14192;DHT22;7177;48.572;7.838;2023-02-26T11:49:13;2.40;99.90
14192;DHT22;7177;48.572;7.838;2023-02-26T11:51:46;2.50;99.90
14192;DHT22;7177;48.572;7.838;2023-02-26T11:54:24;2.80;99.90
14192;DHT22;7177;48.572;7.838;2023-02-26T11:56:51;3.70;99.90
14192;DHT22;7177;48.572;7.838;2023-02-26T11:59:25;4.20;99.90
14192;DHT22;7177;48.572;7.838;2023-02-26T12:01:52;4.70;99.90
14192;DHT22;7177;48.572;7.838;2023-02-26T12:04:22;5.10;99.90
14192;DHT22;7177;48.572;7.838;2023-02-26T12:06:50;5.50;99.90
14192;DHT22;7177;48.572;7.838;2023-02-26T12:09:17;5.00;99.90
14192;DHT22;7177;48.572;7.838;2023-02-26T12:25:38;3.70;99.90
14192;DHT22;7177;48.572;7.838;2023-02-26T12:42:19;3.20;99.90
14192;DHT22;7177;48.572;7.838;2023-02-26T12:59:30;3.00;99.90
14192;DHT22;7177;48.572;7.838;2023-02-26T13:05:15;3.30;99.90
14192;DHT22;7177;48.572;7.838;2023-02-26T13:19:20;2.70;99.90
14192;DHT22;7177;48.572;7.838;2023-02-26T13:21:52;2.60;99.90
14192;DHT22;7177;48.572;7.838;2023-02-26T13:24:24;2.60;99.90
14192;DHT22;7177;48.572;7.838;2023-02-26T13:26:52;2.60;99.90
14192;DHT22;7177;48.572;7.838;2023-02-26T13:29:26;2.70;99.90
14192;DHT22;7177;48.572;7.838;2023-02-26T13:31:57;2.80;99.90
14192;DHT22;7177;48.572;7.838;2023-02-26T13:34:41;3.10;99.90
14192;DHT22;7177;48.572;7.838;2023-02-26T13:37:29;3.30;99.90
14192;DHT22;7177;48.572;7.838;2023-02-26T13:40:37;3.30;99.90
14192;DHT22;7177;48.572;7.838;2023-02-26T13:43:27;3.20;99.90
14192;DHT22;7177;48.572;7.838;2023-02-26T13:51:38;2.70;99.90
14192;DHT22;7177;48.572;7.838;2023-02-26T13:59:23;2.40;99.90
14192;DHT22;7177;48.572;7.838;2023-02-26T14:01:55;2.60;99.90
14192;DHT22;7177;48.572;7.838;2023-02-26T14:04:23;2.70;99.90
14192;DHT22;7177;48.572;7.838;2023-02-26T14:07:10;2.80;99.90
14192;DHT22;7177;48.572;7.838;2023-02-26T14:09:46;2.90;99.90
14192;DHT22;7177;48.572;7.838;2023-02-26T14:12:25;3.00;99.90
14192;DHT22;7177;48.572;7.838;2023-02-26T14:17:38;3.00;99.90
14192;DHT22;7177;48.572;7.838;2023-02-26T14:20:23;2.90;99.90
14192;DHT22;7177;48.572;7.838;2023-02-26T14:22:58;2.90;99.90
14192;DHT22;7177;48.572;7.838;2023-02-26T14:25:55;2.90;99.90
14192;DHT22;7177;48.572;7.838;2023-02-26T14:33:36;3.20;99.90
14192;DHT22;7177;48.572;7.838;2023-02-26T14:36:04;3.30;99.90
14192;DHT22;7177;48.572;7.838;2023-02-26T14:38:36;3.30;99.90
14192;DHT22;7177;48.572;7.838;2023-02-26T14:41:20;3.40;99.90
14192;DHT22;7177;48.572;7.838;2023-02-26T14:44:05;3.50;99.90
14192;DHT22;7177;48.572;7.838;2023-02-26T14:46:35;3.60;99.90
14192;DHT22;7177;48.572;7.838;2023-02-26T14:49:01;3.90;99.90
14192;DHT22;7177;48.572;7.838;2023-02-26T14:51:42;4.00;99.90
14192;DHT22;7177;48.572;7.838;2023-02-26T14:54:27;3.80;99.90
14192;DHT22;7177;48.572;7.838;2023-02-26T15:02:47;2.90;99.90
14192;DHT22;7177;48.572;7.838;2023-02-26T15:05:47;2.60;99.90
14192;DHT22;7177;48.572;7.838;2023-02-26T15:14:28;2.40;99.90
14192;DHT22;7177;48.572;7.838;2023-02-26T15:20:19;2.70;99.90
14192;DHT22;7177;48.572;7.838;2023-02-26T15:23:16;2.80;99.90
14192;DHT22;7177;48.572;7.838;2023-02-26T15:25:46;2.80;99.90
14192;DHT22;7177;48.572;7.838;2023-02-26T15:28:30;3.00;99.90
14192;DHT22;7177;48.572;7.838;2023-02-26T15:30:58;3.00;99.90
14192;DHT22;7177;48.572;7.838;2023-02-26T15:33:25;3.10;99.90
14192;DHT22;7177;48.572;7.838;2023-02-26T15:35:53;3.20;99.90
14192;DHT22;7177;48.572;7.838;2023-02-26T15:38:19;3.20;99.90
14192;DHT22;7177;48.572;7.838;2023-02-26T15:40:45;2.80;99.90
14192;DHT22;7177;48.572;7.838;2023-02-26T15:43:15;2.20;99.90
14192;DHT22;7177;48.572;7.838;2023-02-26T15:45:45;2.00;99.90
14192;DHT22;7177;48.572;7.838;2023-02-26T15:48:28;1.90;99.90
14192;DHT22;7177;48.572;7.838;2023-02-26T15:51:02;1.70;99.90
14192;DHT22;7177;48.572;7.838;2023-02-26T15:53:33;1.80;99.90
14192;DHT22;7177;48.572;7.838;2023-02-26T15:56:03;2.00;99.90
14192;DHT22;7177;48.572;7.838;2023-02-26T16:01:00;2.40;99.90
14192;DHT22;7177;48.572;7.838;2023-02-26T16:03:29;2.50;99.90
14192;DHT22;7177;48.572;7.838;2023-02-26T16:05:56;2.70;99.90
14192;DHT22;7177;48.572;7.838;2023-02-26T16:08:22;2.80;99.90
14192;DHT22;7177;48.572;7.838;2023-02-26T16:10:48;2.80;99.90
14192;DHT22;7177;48.572;7.838;2023-02-26T16:13:26;2.80;99.90
14192;DHT22;7177;48.572;7.838;2023-02-26T16:15:52;2.80;99.90
14192;DHT22;7177;48.572;7.838;2023-02-26T16:18:22;2.80;99.90
14192;DHT22;7177;48.572;7.838;2023-02-26T16:20:51;2.80;99.90
14192;DHT22;7177;48.572;7.838;2023-02-26T16:23:22;2.80;99.90
14192;DHT22;7177;48.572;7.838;2023-02-26T16:25:58;2.80;99.90
14192;DHT22;7177;48.572;7.838;2023-02-26T16:28:32;2.70;99.90
14192;DHT22;7177;48.572;7.838;2023-02-26T16:31:03;2.70;99.90
14192;DHT22;7177;48.572;7.838;2023-02-26T16:33:32;2.70;99.90
14192;DHT22;7177;48.572;7.838;2023-02-26T16:36:14;2.70;99.90
14192;DHT22;7177;48.572;7.838;2023-02-26T16:39:14;2.70;99.90
14192;DHT22;7177;48.572;7.838;2023-02-26T16:41:38;2.70;99.90
14192;DHT22;7177;48.572;7.838;2023-02-26T16:46:56;2.60;99.90
14192;DHT22;7177;48.572;7.838;2023-02-26T16:49:31;2.60;99.90
14192;DHT22;7177;48.572;7.838;2023-02-26T16:51:58;2.60;99.90
14192;DHT22;7177;48.572;7.838;2023-02-26T16:54:33;2.60;99.90
14192;DHT22;7177;48.572;7.838;2023-02-26T16:59:37;2.40;99.90
14192;DHT22;7177;48.572;7.838;2023-02-26T17:02:20;2.30;99.90
14192;DHT22;7177;48.572;7.838;2023-02-26T17:04:52;2.20;99.90
14192;DHT22;7177;48.572;7.838;2023-02-26T17:07:32;2.20;99.90
14192;DHT22;7177;48.572;7.838;2023-02-26T17:10:16;2.20;99.90
14192;DHT22;7177;48.572;7.838;2023-02-26T17:12:53;2.00;99.90
14192;DHT22;7177;48.572;7.838;2023-02-26T17:15:29;2.00;99.90
14192;DHT22;7177;48.572;7.838;2023-02-26T17:17:54;1.90;99.90
14192;DHT22;7177;48.572;7.838;2023-02-26T17:20:24;1.90;99.90
14192;DHT22;7177;48.572;7.838;2023-02-26T17:22:50;1.90;99.90
14192;DHT22;7177;48.572;7.838;2023-02-26T17:25:17;1.90;99.90
14192;DHT22;7177;48.572;7.838;2023-02-26T17:27:44;1.80;99.90
14192;DHT22;7177;48.572;7.838;2023-02-26T17:30:13;1.80;99.90
14192;DHT22;7177;48.572;7.838;2023-02-26T17:32:40;1.70;99.90
14192;DHT22;7177;48.572;7.838;2023-02-26T17:35:06;1.70;99.90
14192;DHT22;7177;48.572;7.838;2023-02-26T17:37:33;1.80;99.90
14192;DHT22;7177;48.572;7.838;2023-02-26T17:40:03;1.80;99.90
14192;DHT22;7177;48.572;7.838;2023-02-26T17:42:29;1.80;99.90
14192;DHT22;7177;48.572;7.838;2023-02-26T17:44:55;1.90;99.90
14192;DHT22;7177;48.572;7.838;2023-02-26T17:47:25;1.90;99.90
14192;DHT22;7177;48.572;7.838;2023-02-26T17:49:51;1.90;99.90
14192;DHT22;7177;48.572;7.838;2023-02-26T17:52:18;1.90;99.90
14192;DHT22;7177;48.572;7.838;2023-02-26T17:54:43;1.90;99.90
14192;DHT22;7177;48.572;7.838;2023-02-26T17:57:17;1.90;99.90
14192;DHT22;7177;48.572;7.838;2023-02-26T17:59:43;1.80;99.90
14192;DHT22;7177;48.572;7.838;2023-02-26T18:02:27;1.90;99.90
14192;DHT22;7177;48.572;7.838;2023-02-26T18:04:53;2.00;99.90
14192;DHT22;7177;48.572;7.838;2023-02-26T18:07:19;1.90;99.90
14192;DHT22;7177;48.572;7.838;2023-02-26T18:09:46;1.80;99.90
14192;DHT22;7177;48.572;7.838;2023-02-26T18:12:14;1.90;99.90
14192;DHT22;7177;48.572;7.838;2023-02-26T18:14:40;1.90;99.90
14192;DHT22;7177;48.572;7.838;2023-02-26T18:17:08;1.90;99.90
14192;DHT22;7177;48.572;7.838;2023-02-26T18:19:34;1.90;99.90
14192;DHT22;7177;48.572;7.838;2023-02-26T18:22:00;1.90;99.90
14192;DHT22;7177;48.572;7.838;2023-02-26T18:24:25;1.90;99.90
14192;DHT22;7177;48.572;7.838;2023-02-26T18:26:51;2.00;99.90
14192;DHT22;7177;48.572;7.838;2023-02-26T18:29:17;2.10;99.90
14192;DHT22;7177;48.572;7.838;2023-02-26T18:31:42;1.90;99.90
14192;DHT22;7177;48.572;7.838;2023-02-26T18:34:08;1.90;99.90
14192;DHT22;7177;48.572;7.838;2023-02-26T18:36:34;1.80;99.90
14192;DHT22;7177;48.572;7.838;2023-02-26T18:39:04;1.90;99.90
14192;DHT22;7177;48.572;7.838;2023-02-26T18:41:31;1.90;99.90
14192;DHT22;7177;48.572;7.838;2023-02-26T18:43:57;2.00;99.90
14192;DHT22;7177;48.572;7.838;2023-02-26T18:46:23;2.00;99.90
14192;DHT22;7177;48.572;7.838;2023-02-26T18:48:49;1.90;99.90
14192;DHT22;7177;48.572;7.838;2023-02-26T18:53:40;1.90;99.90
14192;DHT22;7177;48.572;7.838;2023-02-26T18:56:06;1.90;99.90
14192;DHT22;7177;48.572;7.838;2023-02-26T18:58:31;2.00;99.90
14192;DHT22;7177;48.572;7.838;2023-02-26T19:00:57;1.90;99.90
14192;DHT22;7177;48.572;7.838;2023-02-26T19:03:23;1.90;99.90
14192;DHT22;7177;48.572;7.838;2023-02-26T19:05:57;1.80;99.90